createdAt,value
2023-05-04T00:03:06.671Z,98200.16
2023-05-04T00:08:11.677Z,98194.94
2023-05-04T00:13:15.194Z,98191.69
2023-05-04T00:18:18.530Z,98179.56
2023-05-04T00:23:23.163Z,98186.53
2023-05-04T00:28:26.711Z,98178.91
2023-05-04T00:33:29.966Z,98175.25
2023-05-04T00:38:49.235Z,98172.13
2023-05-04T00:43:52.520Z,98179.53
2023-05-04T00:48:55.877Z,98168.31
2023-05-04T00:54:00.784Z,98161.59
2023-05-04T00:59:04.063Z,98158.31
2023-05-04T01:04:08.104Z,98155.22
2023-05-04T01:09:20.352Z,98150.88
2023-05-04T01:14:24.118Z,98151.22
2023-05-04T01:19:29.293Z,98144.28
2023-05-04T01:24:34.488Z,98146.16
2023-05-04T01:29:43.914Z,98140.38
2023-05-04T01:34:47.797Z,98131.63
2023-05-04T01:39:52.666Z,98141.25
2023-05-04T01:44:56.396Z,98139.88
2023-05-04T01:49:59.615Z,98134.03
2023-05-04T01:55:04.245Z,98131.91
2023-05-04T02:00:10.045Z,98140.19
2023-05-04T02:05:18.906Z,98139.47
2023-05-04T02:10:23.687Z,98137.81
2023-05-04T02:15:27.158Z,98132.66
2023-05-04T02:20:30.406Z,98131.81
2023-05-04T02:25:35.051Z,98124.34
2023-05-04T02:30:38.699Z,98127.44
2023-05-04T02:35:41.933Z,98119.91
2023-05-04T02:40:46.668Z,98120.84
2023-05-04T02:45:50.056Z,98117.19
2023-05-04T02:50:53.680Z,98122.50
2023-05-04T02:55:58.385Z,98125.34
2023-05-04T03:01:01.685Z,98123.59
2023-05-04T03:06:05.303Z,98128.91
2023-05-04T03:11:09.978Z,98121.38
2023-05-04T03:16:13.731Z,98123.28
2023-05-04T03:21:17.166Z,98119.25
2023-05-04T03:26:22.321Z,98123.88
2023-05-04T03:31:26.497Z,98129.34
2023-05-04T03:36:30.462Z,98125.84
2023-05-04T03:41:35.049Z,98126.19
2023-05-04T03:46:38.538Z,98120.16
2023-05-04T03:51:42.405Z,98121.31
2023-05-04T03:56:47.117Z,98129.25
2023-05-04T04:01:53.691Z,98126.75
2023-05-04T04:06:57.397Z,98121.38
2023-05-04T04:12:03.533Z,98131.34
2023-05-04T04:17:07.114Z,98119.91
2023-05-04T04:22:10.707Z,98120.75
2023-05-04T04:27:15.434Z,98121.94
2023-05-04T04:32:19.637Z,98115.47
2023-05-04T04:37:23.411Z,98115.38
2023-05-04T04:42:28.490Z,98108.66
2023-05-04T04:47:31.822Z,98103.19
2023-05-04T04:52:35.692Z,98110.34
2023-05-04T04:57:40.382Z,98114.53
2023-05-04T05:02:43.873Z,98105.75
2023-05-04T05:07:47.683Z,98104.34
2023-05-04T05:12:52.343Z,98103.25
2023-05-04T05:17:56.712Z,98100.97
2023-05-04T05:23:00.429Z,98103.19
2023-05-04T05:28:05.557Z,98101.56
2023-05-04T05:33:09.002Z,98094.19
2023-05-04T05:38:12.777Z,98086.88
2023-05-04T05:43:17.453Z,98085.00
2023-05-04T05:48:21.155Z,98072.66
2023-05-04T05:53:24.316Z,98076.56
2023-05-04T05:58:29.170Z,98084.69
2023-05-04T06:03:32.703Z,98076.19
2023-05-04T06:08:36.121Z,98079.44
2023-05-04T06:13:40.796Z,98070.84
2023-05-04T06:21:25.065Z,98071.63
2023-05-04T06:26:28.426Z,98056.06
2023-05-04T06:31:31.702Z,98056.81
2023-05-04T06:36:36.363Z,98053.13
2023-05-04T06:41:39.645Z,98045.78
2023-05-04T06:46:43.126Z,98041.16
2023-05-04T06:51:48.075Z,98046.16
2023-05-04T06:56:51.946Z,98034.28
2023-05-04T07:01:55.301Z,98023.19
2023-05-04T07:06:59.915Z,98036.06
2023-05-04T07:12:03.200Z,98026.13
2023-05-04T07:17:06.438Z,98025.75
2023-05-04T07:22:11.018Z,98025.53
2023-05-04T07:27:14.380Z,98019.41
2023-05-04T07:32:17.890Z,98011.25
2023-05-04T07:37:22.652Z,98001.84
2023-05-04T07:42:28.027Z,98001.25
2023-05-04T07:47:31.459Z,97990.63
2023-05-04T07:52:36.135Z,97985.56
2023-05-04T07:57:39.894Z,97975.31
2023-05-04T08:02:43.192Z,97976.69
2023-05-04T08:07:48.139Z,97975.25
2023-05-04T08:12:51.551Z,97969.78
2023-05-04T08:17:54.976Z,97970.16
2023-05-04T08:23:00.037Z,97966.97
2023-05-04T08:28:03.265Z,97958.56
2023-05-04T08:33:07.546Z,97946.50
2023-05-04T08:38:12.334Z,97944.94
2023-05-04T08:43:16.295Z,97931.19
2023-05-04T08:48:19.776Z,97927.16
2023-05-04T08:53:25.969Z,97934.88
2023-05-04T08:58:29.334Z,97929.13
2023-05-04T09:03:32.812Z,97928.16
2023-05-04T09:08:37.485Z,97926.56
2023-05-04T09:13:42.681Z,97920.72
2023-05-04T09:18:46.716Z,97930.59
2023-05-04T09:23:52.423Z,97927.00
2023-05-04T09:28:56.139Z,97917.56
2023-05-04T09:34:10.057Z,97909.06
2023-05-04T09:39:16.032Z,97905.84
2023-05-04T09:44:20.020Z,97904.00
2023-05-04T09:49:33.195Z,97898.28
2023-05-04T09:54:41.337Z,97890.00
2023-05-04T09:59:44.876Z,97883.50
2023-05-04T10:04:49.805Z,97890.50
2023-05-04T10:09:54.886Z,97861.22
2023-05-04T10:14:58.355Z,97851.47
2023-05-04T10:20:13.180Z,97858.66
2023-05-04T10:25:46.899Z,97856.75
2023-05-04T10:30:58.029Z,97845.03
2023-05-04T10:36:01.374Z,97837.97
2023-05-04T10:41:16.534Z,97823.38
2023-05-04T10:46:21.370Z,97822.28
2023-05-04T10:51:32.686Z,97805.94
2023-05-04T10:56:43.721Z,97814.94
2023-05-04T11:01:47.416Z,97808.09
2023-05-04T11:07:01.065Z,97786.97
2023-05-04T11:12:05.999Z,97786.97
2023-05-04T11:17:26.556Z,97774.59
2023-05-04T11:22:33.373Z,97781.56
2023-05-04T11:27:38.015Z,97768.41
2023-05-04T11:32:44.024Z,97774.91
2023-05-04T11:37:49.798Z,97764.72
2023-05-04T11:42:57.158Z,97765.78
2023-05-04T11:48:01.651Z,97762.34
2023-05-04T11:53:06.344Z,97749.66
2023-05-04T11:58:12.185Z,97745.25
2023-05-04T12:03:16.782Z,97742.06
2023-05-04T12:08:26.077Z,97746.50
2023-05-04T12:13:30.759Z,97739.91
2023-05-04T12:18:33.988Z,97737.03
2023-05-04T12:23:37.690Z,97734.50
2023-05-04T12:28:43.750Z,97717.97
2023-05-04T12:33:47.062Z,97714.25
2023-05-04T12:38:50.326Z,97713.16
2023-05-04T12:43:55.184Z,97700.97
2023-05-04T12:48:58.561Z,97682.53
2023-05-04T12:54:01.914Z,97688.09
2023-05-04T12:59:06.729Z,97689.78
2023-05-04T13:04:10.018Z,97680.78
2023-05-04T13:09:13.503Z,97669.53
2023-05-04T13:14:18.101Z,97643.97
2023-05-04T13:19:21.327Z,97653.38
2023-05-04T13:24:24.738Z,97645.16
2023-05-04T13:29:29.743Z,97633.19
2023-05-04T13:34:34.167Z,97637.38
2023-05-04T13:39:42.100Z,97621.25
2023-05-04T13:44:47.488Z,97617.78
2023-05-04T13:49:51.450Z,97616.34
2023-05-04T13:54:54.850Z,97616.84
2023-05-04T14:00:07.268Z,97610.72
2023-05-04T14:05:15.462Z,97590.94
2023-05-04T14:10:18.928Z,97594.31
2023-05-04T14:15:24.558Z,97580.34
2023-05-04T14:20:28.144Z,97575.78
2023-05-04T14:25:31.538Z,97552.19
2023-05-04T14:30:36.787Z,97543.72
2023-05-04T14:35:43.326Z,97537.28
2023-05-04T14:40:48.965Z,97547.91
2023-05-04T14:45:54.419Z,97538.31
2023-05-04T14:50:58.126Z,97524.19
2023-05-04T14:56:01.558Z,97521.88
2023-05-04T15:01:06.350Z,97524.56
2023-05-04T15:06:10.227Z,97510.25
2023-05-04T15:11:13.439Z,97491.13
2023-05-04T15:16:18.791Z,97484.03
2023-05-04T15:21:22.165Z,97486.31
2023-05-04T15:26:25.701Z,97485.69
2023-05-04T15:31:30.528Z,97488.38
2023-05-04T15:36:33.881Z,97482.94
2023-05-04T15:41:37.389Z,97481.81
2023-05-04T15:46:42.900Z,97477.69
2023-05-04T15:51:46.250Z,97462.31
2023-05-04T15:56:49.837Z,97464.97
2023-05-04T16:01:54.446Z,97461.63
2023-05-04T16:06:58.028Z,97461.50
2023-05-04T16:12:02.543Z,97452.94
2023-05-04T16:17:07.477Z,97449.03
2023-05-04T16:22:11.409Z,97445.69
2023-05-04T16:27:15.272Z,97439.31
2023-05-04T16:32:20.987Z,97438.69
2023-05-04T16:37:24.325Z,97442.78
2023-05-04T16:42:27.523Z,97447.38
2023-05-04T16:47:32.712Z,97430.56
2023-05-04T16:52:36.645Z,97427.16
2023-05-04T16:57:40.241Z,97439.31
2023-05-04T17:02:45.520Z,97443.88
2023-05-04T17:07:48.971Z,97431.50
2023-05-04T17:12:55.428Z,97449.47
2023-05-04T17:18:01.197Z,97462.09
2023-05-04T17:23:04.784Z,97464.66
2023-05-04T17:28:07.924Z,97480.72
2023-05-04T17:33:12.698Z,97477.47
2023-05-04T17:38:16.023Z,97494.59
2023-05-04T17:43:19.460Z,97497.94
2023-05-04T17:48:25.301Z,97502.09
2023-05-04T17:53:29.026Z,97503.13
2023-05-04T17:58:33.215Z,97507.59
2023-05-04T18:03:38.099Z,97507.88
2023-05-04T18:08:41.636Z,97508.69
2023-05-04T18:13:45.090Z,97504.97
2023-05-04T18:18:50.063Z,97502.44
2023-05-04T18:23:53.857Z,97506.84
2023-05-04T18:29:07.631Z,97519.31
2023-05-04T18:34:16.246Z,97521.03
2023-05-04T18:39:20.427Z,97537.19
2023-05-04T18:44:25.337Z,97529.66
2023-05-04T18:49:30.081Z,97537.53
2023-05-04T18:54:34.633Z,97546.69
2023-05-04T18:59:39.596Z,97558.69
2023-05-04T19:04:47.091Z,97554.47
2023-05-04T19:09:50.689Z,97554.22
2023-05-04T19:14:55.207Z,97558.00
2023-05-04T19:19:59.924Z,97561.94
2023-05-04T19:25:04.962Z,97576.84
2023-05-04T19:30:09.849Z,97580.09
2023-05-04T19:35:15.222Z,97583.75
2023-05-04T19:40:19.055Z,97587.00
2023-05-04T19:45:22.293Z,97589.06
2023-05-04T19:50:27.138Z,97592.72
2023-05-04T19:55:30.359Z,97590.44
2023-05-04T20:00:35.072Z,97597.19
2023-05-04T20:05:40.502Z,97589.94
2023-05-04T20:10:44.096Z,97591.75
2023-05-04T20:15:47.408Z,97594.63
2023-05-04T20:20:53.224Z,97590.06
2023-05-04T20:25:57.145Z,97589.56
2023-05-04T20:31:00.643Z,97587.31
2023-05-04T20:36:07.283Z,97584.28
2023-05-04T20:41:11.322Z,97583.78
2023-05-04T20:46:14.980Z,97583.06
2023-05-04T20:51:19.691Z,97586.75
2023-05-04T20:56:23.286Z,97582.66
2023-05-04T21:01:26.934Z,97578.00
2023-05-04T21:06:31.856Z,97578.50
2023-05-04T21:11:35.447Z,97567.50
2023-05-04T21:16:38.804Z,97573.22
2023-05-04T21:21:43.544Z,97572.91
2023-05-04T21:26:48.592Z,97567.63
2023-05-04T21:31:52.052Z,97569.16
2023-05-04T21:36:56.920Z,97567.06
2023-05-04T21:42:00.341Z,97555.03
2023-05-04T21:47:04.028Z,97565.53
2023-05-04T21:52:08.722Z,97567.97
2023-05-04T21:57:12.145Z,97570.50
2023-05-04T22:02:15.667Z,97563.38
2023-05-04T22:07:20.831Z,97559.34
2023-05-04T22:12:24.334Z,97558.34
2023-05-04T22:17:27.585Z,97561.41
2023-05-04T22:22:32.245Z,97557.09
2023-05-04T22:27:35.398Z,97551.28
2023-05-04T22:32:38.617Z,97555.16
2023-05-04T22:37:43.285Z,97562.84
2023-05-04T22:42:46.714Z,97562.03
2023-05-04T22:47:50.025Z,97557.28
2023-05-04T22:52:54.718Z,97552.44
2023-05-04T22:57:57.995Z,97559.56
2023-05-04T23:03:01.628Z,97558.31
2023-05-04T23:08:06.789Z,97556.22
2023-05-04T23:13:10.175Z,97557.31
2023-05-04T23:18:13.413Z,97558.41
2023-05-04T23:23:18.364Z,97558.22
2023-05-04T23:28:21.799Z,97552.66
2023-05-04T23:33:25.086Z,97554.44
2023-05-04T23:38:30.061Z,97541.19
2023-05-04T23:43:33.645Z,97541.34
2023-05-04T23:48:36.882Z,97538.19
2023-05-04T23:53:41.604Z,97525.66
2023-05-04T23:58:44.737Z,97528.91
